sensor_id;sensor_type;location;lat;lon;timestamp;P1;P2;P0
54305;PMS7003;66145;45.188;5.712;2023-04-29T00:00:17;2.00;2.00;2.00
54305;PMS7003;66145;45.188;5.712;2023-04-29T00:02:42;4.00;2.00;2.00
54305;PMS7003;66145;45.188;5.712;2023-04-29T00:05:08;4.00;3.00;2.00
54305;PMS7003;66145;45.188;5.712;2023-04-29T00:07:34;2.67;0.67;0.67
54305;PMS7003;66145;45.188;5.712;2023-04-29T00:10:00;2.00;2.00;1.75
54305;PMS7003;66145;45.188;5.712;2023-04-29T00:12:26;2.00;2.00;1.67
54305;PMS7003;66145;45.188;5.712;2023-04-29T00:14:52;2.00;2.00;1.00
54305;PMS7003;66145;45.188;5.712;2023-04-29T00:17:17;2.67;2.67;2.00
54305;PMS7003;66145;45.188;5.712;2023-04-29T00:19:43;2.00;2.00;2.00
54305;PMS7003;66145;45.188;5.712;2023-04-29T00:22:09;2.00;2.00;1.75
54305;PMS7003;66145;45.188;5.712;2023-04-29T00:24:34;2.33;2.33;2.00
54305;PMS7003;66145;45.188;5.712;2023-04-29T00:27:00;2.00;2.00;1.67
54305;PMS7003;66145;45.188;5.712;2023-04-29T00:29:26;2.00;2.00;2.00
54305;PMS7003;66145;45.188;5.712;2023-04-29T00:31:52;2.00;2.00;2.00
54305;PMS7003;66145;45.188;5.712;2023-04-29T00:34:17;2.67;2.67;2.00
54305;PMS7003;66145;45.188;5.712;2023-04-29T00:36:43;2.00;2.00;2.00
54305;PMS7003;66145;45.188;5.712;2023-04-29T00:39:08;2.00;2.00;1.67
54305;PMS7003;66145;45.188;5.712;2023-04-29T00:41:33;2.00;2.00;2.00
54305;PMS7003;66145;45.188;5.712;2023-04-29T00:43:59;2.00;2.00;2.00
54305;PMS7003;66145;45.188;5.712;2023-04-29T00:46:25;2.00;2.00;1.00
54305;PMS7003;66145;45.188;5.712;2023-04-29T00:48:50;2.00;2.00;2.00
54305;PMS7003;66145;45.188;5.712;2023-04-29T00:51:16;2.00;2.00;2.00
54305;PMS7003;66145;45.188;5.712;2023-04-29T00:53:42;2.25;2.25;1.75
54305;PMS7003;66145;45.188;5.712;2023-04-29T00:56:08;2.33;1.67;1.67
54305;PMS7003;66145;45.188;5.712;2023-04-29T00:58:34;2.50;2.00;1.50
54305;PMS7003;66145;45.188;5.712;2023-04-29T01:01:00;2.00;2.00;2.00
54305;PMS7003;66145;45.188;5.712;2023-04-29T01:03:27;2.00;2.00;1.75
54305;PMS7003;66145;45.188;5.712;2023-04-29T01:05:57;2.00;2.00;2.00
54305;PMS7003;66145;45.188;5.712;2023-04-29T01:08:36;1.50;1.50;1.50
54305;PMS7003;66145;45.188;5.712;2023-04-29T01:11:18;3.50;2.50;2.00
54305;PMS7003;66145;45.188;5.712;2023-04-29T01:13:50;2.00;2.00;1.50
54305;PMS7003;66145;45.188;5.712;2023-04-29T01:16:24;1.75;1.75;1.00
54305;PMS7003;66145;45.188;5.712;2023-04-29T01:18:54;1.75;1.75;1.50
54305;PMS7003;66145;45.188;5.712;2023-04-29T01:21:23;1.50;1.50;1.25
54305;PMS7003;66145;45.188;5.712;2023-04-29T01:23:49;2.25;2.25;2.00
54305;PMS7003;66145;45.188;5.712;2023-04-29T01:26:23;0.75;0.75;0.00
54305;PMS7003;66145;45.188;5.712;2023-04-29T01:29:00;1.75;1.75;1.75
54305;PMS7003;66145;45.188;5.712;2023-04-29T01:32:03;3.00;3.00;2.50
54305;PMS7003;66145;45.188;5.712;2023-04-29T01:37:32;2.00;2.00;1.75
54305;PMS7003;66145;45.188;5.712;2023-04-29T01:42:44;1.75;1.75;1.50
54305;PMS7003;66145;45.188;5.712;2023-04-29T01:45:14;2.50;2.50;1.75
54305;PMS7003;66145;45.188;5.712;2023-04-29T01:47:45;1.75;1.75;1.75
54305;PMS7003;66145;45.188;5.712;2023-04-29T01:50:11;2.00;2.00;1.75
54305;PMS7003;66145;45.188;5.712;2023-04-29T01:52:37;2.00;1.67;1.00
54305;PMS7003;66145;45.188;5.712;2023-04-29T01:55:02;1.67;1.67;1.00
54305;PMS7003;66145;45.188;5.712;2023-04-29T01:57:28;3.75;2.00;1.25
54305;PMS7003;66145;45.188;5.712;2023-04-29T01:59:54;2.00;2.00;2.00
54305;PMS7003;66145;45.188;5.712;2023-04-29T02:02:21;2.50;1.00;1.00
54305;PMS7003;66145;45.188;5.712;2023-04-29T02:04:47;2.00;2.00;2.00
54305;PMS7003;66145;45.188;5.712;2023-04-29T02:07:13;3.00;1.75;1.50
54305;PMS7003;66145;45.188;5.712;2023-04-29T02:09:38;1.00;1.00;1.00
54305;PMS7003;66145;45.188;5.712;2023-04-29T02:12:04;1.00;1.00;1.00
54305;PMS7003;66145;45.188;5.712;2023-04-29T02:14:30;2.00;2.00;2.00
54305;PMS7003;66145;45.188;5.712;2023-04-29T02:16:55;1.00;1.00;1.00
54305;PMS7003;66145;45.188;5.712;2023-04-29T02:19:20;2.67;2.67;2.33
54305;PMS7003;66145;45.188;5.712;2023-04-29T02:21:46;2.00;2.00;1.67
54305;PMS7003;66145;45.188;5.712;2023-04-29T02:24:11;3.00;3.00;1.00
54305;PMS7003;66145;45.188;5.712;2023-04-29T02:26:37;3.00;3.00;2.00
54305;PMS7003;66145;45.188;5.712;2023-04-29T02:29:02;2.00;2.00;2.00
54305;PMS7003;66145;45.188;5.712;2023-04-29T02:31:27;3.00;1.00;1.00
54305;PMS7003;66145;45.188;5.712;2023-04-29T02:33:53;1.00;1.00;1.00
54305;PMS7003;66145;45.188;5.712;2023-04-29T02:36:18;2.00;2.00;2.00
54305;PMS7003;66145;45.188;5.712;2023-04-29T02:38:44;1.33;1.33;1.00
54305;PMS7003;66145;45.188;5.712;2023-04-29T02:41:09;2.00;2.00;2.00
54305;PMS7003;66145;45.188;5.712;2023-04-29T02:43:35;1.00;1.00;1.00
54305;PMS7003;66145;45.188;5.712;2023-04-29T02:46:00;1.00;1.00;1.00
54305;PMS7003;66145;45.188;5.712;2023-04-29T02:48:26;2.00;2.00;2.00
54305;PMS7003;66145;45.188;5.712;2023-04-29T02:50:51;2.00;2.00;2.00
54305;PMS7003;66145;45.188;5.712;2023-04-29T02:53:17;1.00;1.00;1.00
54305;PMS7003;66145;45.188;5.712;2023-04-29T02:55:42;2.67;2.67;2.33
54305;PMS7003;66145;45.188;5.712;2023-04-29T02:58:08;3.67;2.00;2.00
54305;PMS7003;66145;45.188;5.712;2023-04-29T03:00:33;1.67;1.67;1.67
54305;PMS7003;66145;45.188;5.712;2023-04-29T03:02:59;2.00;2.00;2.00
54305;PMS7003;66145;45.188;5.712;2023-04-29T03:05:24;2.00;2.00;2.00
54305;PMS7003;66145;45.188;5.712;2023-04-29T03:07:50;1.00;1.00;1.00
54305;PMS7003;66145;45.188;5.712;2023-04-29T03:10:15;1.00;1.00;1.00
54305;PMS7003;66145;45.188;5.712;2023-04-29T03:12:42;2.50;2.50;2.00
54305;PMS7003;66145;45.188;5.712;2023-04-29T03:15:07;2.33;2.33;2.00
54305;PMS7003;66145;45.188;5.712;2023-04-29T03:17:34;1.75;1.75;1.25
54305;PMS7003;66145;45.188;5.712;2023-04-29T03:20:00;1.50;1.50;1.50
54305;PMS7003;66145;45.188;5.712;2023-04-29T03:22:26;2.00;2.00;2.00
54305;PMS7003;66145;45.188;5.712;2023-04-29T03:24:51;3.00;3.00;2.00
54305;PMS7003;66145;45.188;5.712;2023-04-29T03:27:16;2.00;2.00;2.00
54305;PMS7003;66145;45.188;5.712;2023-04-29T03:29:42;3.00;3.00;2.00
54305;PMS7003;66145;45.188;5.712;2023-04-29T03:32:07;2.67;2.67;2.00
54305;PMS7003;66145;45.188;5.712;2023-04-29T03:34:32;2.00;2.00;2.00
54305;PMS7003;66145;45.188;5.712;2023-04-29T03:36:58;5.00;3.67;3.00
54305;PMS7003;66145;45.188;5.712;2023-04-29T03:39:23;4.00;2.00;2.00
54305;PMS7003;66145;45.188;5.712;2023-04-29T03:41:49;4.00;2.00;2.00
54305;PMS7003;66145;45.188;5.712;2023-04-29T03:44:15;2.00;2.00;2.00
54305;PMS7003;66145;45.188;5.712;2023-04-29T03:46:40;2.00;2.00;2.00
54305;PMS7003;66145;45.188;5.712;2023-04-29T03:49:05;3.00;3.00;3.00
54305;PMS7003;66145;45.188;5.712;2023-04-29T03:51:31;2.67;2.67;2.00
54305;PMS7003;66145;45.188;5.712;2023-04-29T03:53:56;2.00;2.00;2.00
54305;PMS7003;66145;45.188;5.712;2023-04-29T03:56:23;2.00;2.00;1.75
54305;PMS7003;66145;45.188;5.712;2023-04-29T03:58:50;3.00;3.00;3.00
54305;PMS7003;66145;45.188;5.712;2023-04-29T04:01:15;2.25;2.25;2.00
54305;PMS7003;66145;45.188;5.712;2023-04-29T04:03:41;2.00;2.00;2.00
54305;PMS7003;66145;45.188;5.712;2023-04-29T04:06:07;1.75;1.75;1.75
54305;PMS7003;66145;45.188;5.712;2023-04-29T04:08:32;2.67;2.00;2.00
54305;PMS7003;66145;45.188;5.712;2023-04-29T04:10:58;6.67;3.00;2.00
54305;PMS7003;66145;45.188;5.712;2023-04-29T04:13:30;3.25;3.00;2.00
54305;PMS7003;66145;45.188;5.712;2023-04-29T04:15:55;2.00;2.00;1.75
54305;PMS7003;66145;45.188;5.712;2023-04-29T04:18:21;2.00;2.00;1.00
54305;PMS7003;66145;45.188;5.712;2023-04-29T04:20:46;2.33;2.33;2.00
54305;PMS7003;66145;45.188;5.712;2023-04-29T04:23:12;2.00;2.00;2.00
54305;PMS7003;66145;45.188;5.712;2023-04-29T04:25:37;3.00;3.00;2.00
54305;PMS7003;66145;45.188;5.712;2023-04-29T04:28:03;3.00;3.00;2.33
54305;PMS7003;66145;45.188;5.712;2023-04-29T04:30:28;1.67;1.67;1.67
54305;PMS7003;66145;45.188;5.712;2023-04-29T04:32:54;2.00;2.00;2.00
54305;PMS7003;66145;45.188;5.712;2023-04-29T04:35:19;1.00;1.00;1.00
54305;PMS7003;66145;45.188;5.712;2023-04-29T04:37:44;2.33;1.67;1.67
54305;PMS7003;66145;45.188;5.712;2023-04-29T04:40:10;2.00;2.00;1.67
54305;PMS7003;66145;45.188;5.712;2023-04-29T04:42:36;3.00;3.00;2.00
54305;PMS7003;66145;45.188;5.712;2023-04-29T04:45:01;1.25;1.25;1.00
54305;PMS7003;66145;45.188;5.712;2023-04-29T04:47:27;1.67;1.67;1.00
54305;PMS7003;66145;45.188;5.712;2023-04-29T04:49:53;1.33;1.33;1.00
54305;PMS7003;66145;45.188;5.712;2023-04-29T04:52:19;3.00;3.00;2.00
54305;PMS7003;66145;45.188;5.712;2023-04-29T04:54:45;2.00;2.00;2.00
54305;PMS7003;66145;45.188;5.712;2023-04-29T04:57:10;1.00;1.00;1.00
54305;PMS7003;66145;45.188;5.712;2023-04-29T04:59:36;1.33;1.33;1.00
54305;PMS7003;66145;45.188;5.712;2023-04-29T05:02:01;1.00;1.00;1.00
54305;PMS7003;66145;45.188;5.712;2023-04-29T05:04:26;1.00;1.00;1.00
54305;PMS7003;66145;45.188;5.712;2023-04-29T05:06:52;1.67;1.67;1.00
54305;PMS7003;66145;45.188;5.712;2023-04-29T05:09:17;2.00;2.00;1.00
54305;PMS7003;66145;45.188;5.712;2023-04-29T05:11:43;1.00;1.00;1.00
54305;PMS7003;66145;45.188;5.712;2023-04-29T05:14:08;2.00;2.00;2.00
54305;PMS7003;66145;45.188;5.712;2023-04-29T05:16:33;2.00;2.00;1.67
54305;PMS7003;66145;45.188;5.712;2023-04-29T05:18:59;1.67;1.67;1.00
54305;PMS7003;66145;45.188;5.712;2023-04-29T05:21:24;2.00;2.00;1.67
54305;PMS7003;66145;45.188;5.712;2023-04-29T05:23:49;2.00;2.00;1.33
54305;PMS7003;66145;45.188;5.712;2023-04-29T05:26:15;1.67;1.67;1.00
54305;PMS7003;66145;45.188;5.712;2023-04-29T05:28:40;1.00;1.00;1.00
54305;PMS7003;66145;45.188;5.712;2023-04-29T05:31:05;1.33;1.33;1.00
54305;PMS7003;66145;45.188;5.712;2023-04-29T05:33:31;2.00;2.00;1.00
54305;PMS7003;66145;45.188;5.712;2023-04-29T05:35:56;1.00;1.00;1.00
54305;PMS7003;66145;45.188;5.712;2023-04-29T05:38:21;1.00;1.00;1.00
54305;PMS7003;66145;45.188;5.712;2023-04-29T05:40:52;0.75;0.75;0.75
54305;PMS7003;66145;45.188;5.712;2023-04-29T05:43:19;2.00;2.00;1.50
54305;PMS7003;66145;45.188;5.712;2023-04-29T05:45:47;1.00;1.00;1.00
54305;PMS7003;66145;45.188;5.712;2023-04-29T05:48:13;0.00;0.00;0.00
54305;PMS7003;66145;45.188;5.712;2023-04-29T05:50:38;4.00;2.00;2.00
54305;PMS7003;66145;45.188;5.712;2023-04-29T05:53:03;2.00;2.00;1.00
54305;PMS7003;66145;45.188;5.712;2023-04-29T05:55:29;1.00;1.00;1.00
54305;PMS7003;66145;45.188;5.712;2023-04-29T05:57:54;2.00;2.00;2.00
54305;PMS7003;66145;45.188;5.712;2023-04-29T06:00:20;3.00;1.67;1.67
54305;PMS7003;66145;45.188;5.712;2023-04-29T06:02:46;1.00;1.00;1.00
54305;PMS7003;66145;45.188;5.712;2023-04-29T06:05:11;1.00;1.00;1.00
54305;PMS7003;66145;45.188;5.712;2023-04-29T06:07:37;1.00;1.00;1.00
54305;PMS7003;66145;45.188;5.712;2023-04-29T06:10:03;0.75;0.75;0.75
54305;PMS7003;66145;45.188;5.712;2023-04-29T06:12:29;1.75;1.75;1.25
54305;PMS7003;66145;45.188;5.712;2023-04-29T06:14:55;1.00;1.00;0.67
54305;PMS7003;66145;45.188;5.712;2023-04-29T06:17:20;1.67;1.67;1.33
54305;PMS7003;66145;45.188;5.712;2023-04-29T06:19:45;1.00;1.00;1.00
54305;PMS7003;66145;45.188;5.712;2023-04-29T06:22:11;1.00;1.00;1.00
54305;PMS7003;66145;45.188;5.712;2023-04-29T06:24:36;1.67;1.67;1.33
54305;PMS7003;66145;45.188;5.712;2023-04-29T06:27:01;3.00;1.00;1.00
54305;PMS7003;66145;45.188;5.712;2023-04-29T06:29:28;1.00;1.00;0.00
54305;PMS7003;66145;45.188;5.712;2023-04-29T06:31:53;1.67;1.00;1.00
54305;PMS7003;66145;45.188;5.712;2023-04-29T06:34:20;1.50;1.50;1.25
54305;PMS7003;66145;45.188;5.712;2023-04-29T06:36:45;2.00;2.00;2.00
54305;PMS7003;66145;45.188;5.712;2023-04-29T06:39:11;0.67;0.67;0.67
54305;PMS7003;66145;45.188;5.712;2023-04-29T06:41:36;1.00;1.00;1.00
54305;PMS7003;66145;45.188;5.712;2023-04-29T06:44:01;1.67;1.67;1.00
54305;PMS7003;66145;45.188;5.712;2023-04-29T06:46:27;2.00;2.00;1.33
54305;PMS7003;66145;45.188;5.712;2023-04-29T06:48:53;1.75;1.75;1.50
54305;PMS7003;66145;45.188;5.712;2023-04-29T06:51:19;2.00;2.00;1.67
54305;PMS7003;66145;45.188;5.712;2023-04-29T06:53:44;2.00;2.00;1.67
54305;PMS7003;66145;45.188;5.712;2023-04-29T06:56:10;2.00;2.00;1.25
54305;PMS7003;66145;45.188;5.712;2023-04-29T06:58:36;1.00;1.00;1.00
54305;PMS7003;66145;45.188;5.712;2023-04-29T07:01:01;1.67;1.67;1.67
54305;PMS7003;66145;45.188;5.712;2023-04-29T07:03:28;2.00;2.00;1.00
54305;PMS7003;66145;45.188;5.712;2023-04-29T07:05:53;1.00;1.00;1.00
54305;PMS7003;66145;45.188;5.712;2023-04-29T07:08:19;1.33;1.33;1.00
54305;PMS7003;66145;45.188;5.712;2023-04-29T07:10:52;2.00;2.00;1.33
54305;PMS7003;66145;45.188;5.712;2023-04-29T07:13:18;2.00;2.00;1.00
54305;PMS7003;66145;45.188;5.712;2023-04-29T07:15:43;2.00;2.00;2.00
54305;PMS7003;66145;45.188;5.712;2023-04-29T07:18:09;2.00;1.67;1.00
54305;PMS7003;66145;45.188;5.712;2023-04-29T07:20:37;2.00;2.00;2.00
54305;PMS7003;66145;45.188;5.712;2023-04-29T07:23:03;2.00;2.00;1.75
54305;PMS7003;66145;45.188;5.712;2023-04-29T07:25:28;2.00;2.00;1.00
54305;PMS7003;66145;45.188;5.712;2023-04-29T07:27:54;2.00;2.00;2.00
54305;PMS7003;66145;45.188;5.712;2023-04-29T07:30:20;1.75;1.75;1.25
54305;PMS7003;66145;45.188;5.712;2023-04-29T07:32:45;1.00;1.00;1.00
54305;PMS7003;66145;45.188;5.712;2023-04-29T07:35:11;3.00;3.00;2.00
54305;PMS7003;66145;45.188;5.712;2023-04-29T07:37:36;1.67;1.67;1.33
54305;PMS7003;66145;45.188;5.712;2023-04-29T07:40:02;2.00;2.00;2.00
54305;PMS7003;66145;45.188;5.712;2023-04-29T07:42:28;2.00;2.00;2.00
54305;PMS7003;66145;45.188;5.712;2023-04-29T07:44:53;0.67;0.67;0.00
54305;PMS7003;66145;45.188;5.712;2023-04-29T07:47:19;2.25;1.75;1.50
54305;PMS7003;66145;45.188;5.712;2023-04-29T07:49:45;2.00;2.00;1.33
54305;PMS7003;66145;45.188;5.712;2023-04-29T07:52:10;1.00;1.00;1.00
54305;PMS7003;66145;45.188;5.712;2023-04-29T07:54:36;2.00;2.00;1.67
54305;PMS7003;66145;45.188;5.712;2023-04-29T07:57:01;4.00;3.00;2.00
54305;PMS7003;66145;45.188;5.712;2023-04-29T07:59:29;3.00;3.00;3.00
54305;PMS7003;66145;45.188;5.712;2023-04-29T08:01:57;2.00;2.00;1.00
54305;PMS7003;66145;45.188;5.712;2023-04-29T08:04:22;2.00;2.00;2.00
54305;PMS7003;66145;45.188;5.712;2023-04-29T08:06:48;2.00;2.00;1.00
54305;PMS7003;66145;45.188;5.712;2023-04-29T08:09:14;1.67;1.67;1.00
54305;PMS7003;66145;45.188;5.712;2023-04-29T08:11:39;2.00;2.00;2.00
54305;PMS7003;66145;45.188;5.712;2023-04-29T08:14:05;1.00;1.00;1.00
54305;PMS7003;66145;45.188;5.712;2023-04-29T08:16:30;2.00;2.00;2.00
54305;PMS7003;66145;45.188;5.712;2023-04-29T08:18:56;1.75;1.75;1.00
54305;PMS7003;66145;45.188;5.712;2023-04-29T08:21:21;2.00;2.00;1.00
54305;PMS7003;66145;45.188;5.712;2023-04-29T08:23:47;2.00;2.00;2.00
54305;PMS7003;66145;45.188;5.712;2023-04-29T08:26:12;2.00;2.00;2.00
54305;PMS7003;66145;45.188;5.712;2023-04-29T08:28:38;1.33;1.33;1.33
54305;PMS7003;66145;45.188;5.712;2023-04-29T08:31:04;2.00;2.00;2.00
54305;PMS7003;66145;45.188;5.712;2023-04-29T08:33:32;0.00;0.00;0.00
54305;PMS7003;66145;45.188;5.712;2023-04-29T08:35:58;2.00;2.00;1.75
54305;PMS7003;66145;45.188;5.712;2023-04-29T08:38:25;1.50;1.50;1.00
54305;PMS7003;66145;45.188;5.712;2023-04-29T08:40:51;1.50;1.50;1.50
54305;PMS7003;66145;45.188;5.712;2023-04-29T08:43:17;1.33;1.33;1.00
54305;PMS7003;66145;45.188;5.712;2023-04-29T08:45:44;1.75;1.75;1.75
54305;PMS7003;66145;45.188;5.712;2023-04-29T08:48:12;1.25;1.25;1.25
54305;PMS7003;66145;45.188;5.712;2023-04-29T08:50:39;1.67;1.67;1.67
54305;PMS7003;66145;45.188;5.712;2023-04-29T08:53:06;1.75;1.75;1.75
54305;PMS7003;66145;45.188;5.712;2023-04-29T08:55:34;1.75;1.75;1.75
54305;PMS7003;66145;45.188;5.712;2023-04-29T08:58:01;3.00;2.25;2.00
54305;PMS7003;66145;45.188;5.712;2023-04-29T09:00:26;2.00;2.00;1.33
54305;PMS7003;66145;45.188;5.712;2023-04-29T09:02:52;1.33;1.33;1.33
54305;PMS7003;66145;45.188;5.712;2023-04-29T09:05:20;1.75;1.75;1.50
54305;PMS7003;66145;45.188;5.712;2023-04-29T09:07:47;2.75;2.75;2.25
54305;PMS7003;66145;45.188;5.712;2023-04-29T09:10:14;2.50;2.50;2.00
54305;PMS7003;66145;45.188;5.712;2023-04-29T09:12:40;2.00;2.00;2.00
54305;PMS7003;66145;45.188;5.712;2023-04-29T09:15:06;2.00;2.00;2.00
54305;PMS7003;66145;45.188;5.712;2023-04-29T09:22:48;2.50;2.50;1.75
54305;PMS7003;66145;45.188;5.712;2023-04-29T09:25:15;2.00;2.00;2.00
54305;PMS7003;66145;45.188;5.712;2023-04-29T09:27:40;2.00;2.00;2.00
54305;PMS7003;66145;45.188;5.712;2023-04-29T09:30:06;2.00;2.00;2.00
54305;PMS7003;66145;45.188;5.712;2023-04-29T09:32:32;2.67;2.67;2.00
54305;PMS7003;66145;45.188;5.712;2023-04-29T09:34:58;2.00;2.00;2.00
54305;PMS7003;66145;45.188;5.712;2023-04-29T09:37:24;2.00;2.00;2.00
54305;PMS7003;66145;45.188;5.712;2023-04-29T09:39:52;2.00;2.00;2.00
54305;PMS7003;66145;45.188;5.712;2023-04-29T09:42:18;2.75;2.75;2.00
54305;PMS7003;66145;45.188;5.712;2023-04-29T09:44:43;2.67;2.67;2.00
54305;PMS7003;66145;45.188;5.712;2023-04-29T09:47:09;2.00;2.00;1.67
54305;PMS7003;66145;45.188;5.712;2023-04-29T09:49:42;2.00;2.00;2.00
54305;PMS7003;66145;45.188;5.712;2023-04-29T09:52:10;1.75;1.75;1.75
54305;PMS7003;66145;45.188;5.712;2023-04-29T09:54:38;2.00;2.00;2.00
54305;PMS7003;66145;45.188;5.712;2023-04-29T09:57:05;3.25;3.00;2.00
54305;PMS7003;66145;45.188;5.712;2023-04-29T09:59:32;1.00;1.00;1.00
54305;PMS7003;66145;45.188;5.712;2023-04-29T10:02:00;2.50;2.50;1.75
54305;PMS7003;66145;45.188;5.712;2023-04-29T10:04:28;1.00;1.00;1.00
54305;PMS7003;66145;45.188;5.712;2023-04-29T10:06:58;2.00;2.00;1.50
54305;PMS7003;66145;45.188;5.712;2023-04-29T10:09:25;5.00;2.00;2.00
54305;PMS7003;66145;45.188;5.712;2023-04-29T10:11:51;2.00;2.00;1.67
54305;PMS7003;66145;45.188;5.712;2023-04-29T10:14:18;2.00;2.00;2.00
54305;PMS7003;66145;45.188;5.712;2023-04-29T10:19:24;2.00;2.00;2.00
54305;PMS7003;66145;45.188;5.712;2023-04-29T10:21:52;2.00;2.00;1.50
54305;PMS7003;66145;45.188;5.712;2023-04-29T10:24:20;1.75;1.75;0.75
54305;PMS7003;66145;45.188;5.712;2023-04-29T10:26:48;1.60;1.60;1.60
54305;PMS7003;66145;45.188;5.712;2023-04-29T10:29:15;2.00;2.00;1.75
54305;PMS7003;66145;45.188;5.712;2023-04-29T10:31:42;2.50;2.50;2.00
54305;PMS7003;66145;45.188;5.712;2023-04-29T10:34:08;2.00;2.00;2.00
54305;PMS7003;66145;45.188;5.712;2023-04-29T10:36:33;2.00;0.67;0.67
54305;PMS7003;66145;45.188;5.712;2023-04-29T10:38:59;2.50;2.50;2.00
54305;PMS7003;66145;45.188;5.712;2023-04-29T10:41:41;2.00;2.00;2.00
54305;PMS7003;66145;45.188;5.712;2023-04-29T10:44:10;2.00;2.00;1.75
54305;PMS7003;66145;45.188;5.712;2023-04-29T10:46:36;2.00;2.00;2.00
54305;PMS7003;66145;45.188;5.712;2023-04-29T10:49:02;1.00;1.00;1.00
54305;PMS7003;66145;45.188;5.712;2023-04-29T10:51:33;2.00;2.00;2.00
54305;PMS7003;66145;45.188;5.712;2023-04-29T10:56:51;1.00;1.00;1.00
54305;PMS7003;66145;45.188;5.712;2023-04-29T11:01:52;1.75;1.75;1.75
54305;PMS7003;66145;45.188;5.712;2023-04-29T11:04:19;3.00;1.00;1.00
54305;PMS7003;66145;45.188;5.712;2023-04-29T11:06:54;2.00;2.00;2.00
54305;PMS7003;66145;45.188;5.712;2023-04-29T11:09:25;2.50;2.50;2.25
54305;PMS7003;66145;45.188;5.712;2023-04-29T11:17:01;2.00;2.00;2.00
54305;PMS7003;66145;45.188;5.712;2023-04-29T11:19:32;2.75;2.75;2.50
54305;PMS7003;66145;45.188;5.712;2023-04-29T11:22:09;1.75;1.75;1.50
54305;PMS7003;66145;45.188;5.712;2023-04-29T11:24:35;1.25;1.25;1.25
54305;PMS7003;66145;45.188;5.712;2023-04-29T11:27:01;2.00;2.00;1.67
54305;PMS7003;66145;45.188;5.712;2023-04-29T11:29:30;4.25;2.75;2.25
54305;PMS7003;66145;45.188;5.712;2023-04-29T11:31:57;3.00;3.00;2.75
54305;PMS7003;66145;45.188;5.712;2023-04-29T11:34:24;8.00;5.50;3.00
54305;PMS7003;66145;45.188;5.712;2023-04-29T11:36:50;4.00;4.00;2.33
54305;PMS7003;66145;45.188;5.712;2023-04-29T11:39:16;11.33;6.33;5.00
54305;PMS7003;66145;45.188;5.712;2023-04-29T11:41:41;5.33;5.33;4.00
54305;PMS7003;66145;45.188;5.712;2023-04-29T11:44:06;11.67;6.33;4.00
54305;PMS7003;66145;45.188;5.712;2023-04-29T11:46:34;8.00;5.75;4.25
54305;PMS7003;66145;45.188;5.712;2023-04-29T11:49:00;6.33;5.33;4.67
54305;PMS7003;66145;45.188;5.712;2023-04-29T11:51:25;4.00;4.00;3.00
54305;PMS7003;66145;45.188;5.712;2023-04-29T11:53:52;5.50;5.50;3.50
54305;PMS7003;66145;45.188;5.712;2023-04-29T11:56:20;7.00;5.67;4.00
54305;PMS7003;66145;45.188;5.712;2023-04-29T11:58:49;5.75;4.50;3.00
54305;PMS7003;66145;45.188;5.712;2023-04-29T12:01:18;6.00;4.00;3.25
54305;PMS7003;66145;45.188;5.712;2023-04-29T12:03:44;4.75;4.75;3.75
54305;PMS7003;66145;45.188;5.712;2023-04-29T12:06:10;6.00;4.00;3.00
54305;PMS7003;66145;45.188;5.712;2023-04-29T12:08:37;5.50;5.50;3.75
54305;PMS7003;66145;45.188;5.712;2023-04-29T12:11:03;3.67;3.00;2.33
54305;PMS7003;66145;45.188;5.712;2023-04-29T12:13:31;4.25;4.25;3.00
54305;PMS7003;66145;45.188;5.712;2023-04-29T12:16:00;4.75;4.75;3.75
54305;PMS7003;66145;45.188;5.712;2023-04-29T12:18:25;5.67;4.67;4.00
54305;PMS7003;66145;45.188;5.712;2023-04-29T12:20:52;3.75;3.75;2.25
54305;PMS7003;66145;45.188;5.712;2023-04-29T12:23:22;3.75;3.75;3.00
54305;PMS7003;66145;45.188;5.712;2023-04-29T12:25:49;5.00;4.00;3.00
54305;PMS7003;66145;45.188;5.712;2023-04-29T12:28:19;5.50;3.75;3.00
54305;PMS7003;66145;45.188;5.712;2023-04-29T12:30:48;5.00;5.00;3.00
54305;PMS7003;66145;45.188;5.712;2023-04-29T12:33:33;3.00;3.00;3.00
54305;PMS7003;66145;45.188;5.712;2023-04-29T12:35:58;3.00;3.00;3.00
54305;PMS7003;66145;45.188;5.712;2023-04-29T12:38:25;3.00;3.00;2.00
54305;PMS7003;66145;45.188;5.712;2023-04-29T12:40:58;3.50;3.50;2.75
54305;PMS7003;66145;45.188;5.712;2023-04-29T12:43:26;3.00;3.00;2.50
54305;PMS7003;66145;45.188;5.712;2023-04-29T12:45:59;4.00;3.75;2.50
54305;PMS7003;66145;45.188;5.712;2023-04-29T12:48:29;2.75;2.75;2.75
54305;PMS7003;66145;45.188;5.712;2023-04-29T12:50:59;3.50;3.50;2.75
54305;PMS7003;66145;45.188;5.712;2023-04-29T12:53:25;1.75;1.75;1.75
54305;PMS7003;66145;45.188;5.712;2023-04-29T12:55:53;5.00;3.75;3.00
54305;PMS7003;66145;45.188;5.712;2023-04-29T12:58:19;3.67;3.67;2.67
54305;PMS7003;66145;45.188;5.712;2023-04-29T13:00:45;2.50;2.50;2.00
54305;PMS7003;66145;45.188;5.712;2023-04-29T13:03:10;2.00;2.00;2.00
54305;PMS7003;66145;45.188;5.712;2023-04-29T13:05:36;3.00;3.00;2.00
54305;PMS7003;66145;45.188;5.712;2023-04-29T13:08:01;3.00;3.00;2.00
54305;PMS7003;66145;45.188;5.712;2023-04-29T13:10:29;3.25;3.25;2.00
54305;PMS7003;66145;45.188;5.712;2023-04-29T13:12:55;3.00;3.00;2.67
54305;PMS7003;66145;45.188;5.712;2023-04-29T13:15:20;4.00;2.67;2.67
54305;PMS7003;66145;45.188;5.712;2023-04-29T13:17:46;4.00;2.00;2.00
54305;PMS7003;66145;45.188;5.712;2023-04-29T13:20:11;1.67;1.67;1.67
54305;PMS7003;66145;45.188;5.712;2023-04-29T13:22:37;2.00;2.00;1.33
54305;PMS7003;66145;45.188;5.712;2023-04-29T13:25:02;2.33;2.33;2.00
54305;PMS7003;66145;45.188;5.712;2023-04-29T13:27:28;1.75;1.75;1.25
54305;PMS7003;66145;45.188;5.712;2023-04-29T13:29:54;3.00;3.00;2.67
54305;PMS7003;66145;45.188;5.712;2023-04-29T13:32:20;2.67;2.33;2.00
54305;PMS7003;66145;45.188;5.712;2023-04-29T13:34:47;2.50;2.50;2.25
54305;PMS7003;66145;45.188;5.712;2023-04-29T13:37:15;2.75;2.75;2.75
54305;PMS7003;66145;45.188;5.712;2023-04-29T13:39:41;2.00;2.00;2.00
54305;PMS7003;66145;45.188;5.712;2023-04-29T13:42:07;3.00;2.00;2.00
54305;PMS7003;66145;45.188;5.712;2023-04-29T13:44:32;2.00;2.00;2.00
54305;PMS7003;66145;45.188;5.712;2023-04-29T13:46:58;3.00;2.00;1.00
54305;PMS7003;66145;45.188;5.712;2023-04-29T13:49:23;2.00;2.00;2.00
54305;PMS7003;66145;45.188;5.712;2023-04-29T13:51:49;2.33;2.00;2.00
54305;PMS7003;66145;45.188;5.712;2023-04-29T13:54:14;2.00;2.00;2.00
54305;PMS7003;66145;45.188;5.712;2023-04-29T13:56:40;2.00;2.00;1.75
54305;PMS7003;66145;45.188;5.712;2023-04-29T13:59:06;2.00;2.00;2.00
54305;PMS7003;66145;45.188;5.712;2023-04-29T14:01:31;2.00;2.00;1.33
54305;PMS7003;66145;45.188;5.712;2023-04-29T14:03:57;2.00;2.00;2.00
54305;PMS7003;66145;45.188;5.712;2023-04-29T14:06:22;2.00;2.00;1.67
54305;PMS7003;66145;45.188;5.712;2023-04-29T14:08:47;2.00;2.00;2.00
54305;PMS7003;66145;45.188;5.712;2023-04-29T14:11:12;4.00;2.67;2.33
54305;PMS7003;66145;45.188;5.712;2023-04-29T14:13:38;2.00;2.00;2.00
54305;PMS7003;66145;45.188;5.712;2023-04-29T14:16:03;2.00;2.00;1.67
54305;PMS7003;66145;45.188;5.712;2023-04-29T14:18:30;2.75;2.75;2.00
54305;PMS7003;66145;45.188;5.712;2023-04-29T14:20:56;2.33;1.00;1.00
54305;PMS7003;66145;45.188;5.712;2023-04-29T14:23:23;1.75;1.75;1.00
54305;PMS7003;66145;45.188;5.712;2023-04-29T14:25:48;2.33;2.33;2.00
54305;PMS7003;66145;45.188;5.712;2023-04-29T14:28:14;1.00;1.00;1.00
54305;PMS7003;66145;45.188;5.712;2023-04-29T14:30:39;2.00;2.00;2.00
54305;PMS7003;66145;45.188;5.712;2023-04-29T14:33:05;2.00;2.00;1.67
54305;PMS7003;66145;45.188;5.712;2023-04-29T14:35:31;2.00;2.00;1.00
54305;PMS7003;66145;45.188;5.712;2023-04-29T14:37:56;2.00;2.00;2.00
54305;PMS7003;66145;45.188;5.712;2023-04-29T14:40:22;2.00;2.00;1.00
54305;PMS7003;66145;45.188;5.712;2023-04-29T14:42:48;2.00;2.00;1.67